Terminal Aerodrome Forecast
Issued by NWS

Home | Current Version | Previous Version | Text Only | Print | Product List | Glossary On
Versions: 1 2 3 4 5 6 7 8 9 10 11 12 13 14 15 16 17 18 19 20 21 22 23 24
507
FTUS41 KGYX 042320
TAFLEB
TAF
KLEB 042320Z 0500/0524 00000KT P6SM BKN200
     FM050900 00000KT P6SM BKN050 OVC100
     FM051100 VRB03KT 1SM -SN BR OVC015
     FM052000 VRB03KT 5SM BR BKN025 OVC040=

USA.gov is the U.S. government's official web portal to all federal, state and local government web resources and services.